Date,TemperatureHighF,TemperatureAvgF,TemperatureLowF,DewpointHighF,DewpointAvgF,DewpointLowF,HumidityHigh,HumidityAvg,HumidityLow,PressureMaxIn,PressureMinIn,WindSpeedMaxMPH,WindSpeedAvgMPH,GustSpeedMaxMPH,PrecipitationSumIn
2013-6-1,77.4,68.5,58.6,71.8,63.7,55.7,96,85,65,29.95,29.58,18,0,18,0.49
2013-6-2,66.8,59.7,52.5,59.5,55.4,50.5,96,86,71,30.02,29.93,0,0,3,0.00
2013-6-3,77.4,63.0,46.0,62.1,55.7,44.4,96,79,52,30.04,29.86,0,0,3,0.00
2013-6-4,76.8,66.8,61.0,67.9,62.2,58.0,93,85,70,29.95,29.84,0,0,0,0.00
2013-6-5,77.9,67.9,60.8,70.0,63.7,59.2,95,87,69,29.98,29.80,0,0,0,0.23
2013-6-6,72.7,64.4,56.3,65.3,60.1,53.7,96,86,67,29.91,29.84,0,0,0,0.00
2013-6-7,76.2,61.8,50.1,60.5,54.6,48.2,95,79,50,29.95,29.86,0,0,0,0.00
2013-6-8,79.4,65.5,50.7,64.3,56.7,48.6,96,76,52,29.92,29.79,0,0,0,0.00
2013-6-9,81.5,70.9,62.5,68.4,62.0,58.6,94,75,49,29.84,29.78,9,0,0,0.04
2013-6-10,89.3,76.7,63.9,72.7,66.1,58.9,87,71,44,29.87,29.79,10,1,0,0.00
2013-6-11,90.1,81.2,72.4,72.0,68.6,65.4,82,67,45,29.93,29.83,11,1,0,0.00
2013-6-12,88.1,80.8,74.1,72.5,70.3,67.2,85,71,52,29.91,29.81,19,2,0,0.00
2013-6-13,88.0,77.2,68.2,73.4,69.0,64.8,94,77,49,29.95,29.86,6,0,0,0.00
2013-6-14,88.7,77.2,66.1,77.5,70.7,63.7,94,81,65,29.97,29.84,5,0,0,0.00
2013-6-15,87.3,75.5,69.0,75.4,69.2,65.2,94,82,63,29.98,29.87,12,0,0,0.17
2013-6-16,85.9,75.4,67.5,77.1,69.8,64.0,96,84,66,29.95,29.83,8,0,0,0.01
2013-6-17,72.2,68.4,65.1,69.5,66.3,63.3,95,93,88,29.93,29.82,4,0,0,0.17
2013-6-18,82.7,71.0,61.8,71.3,65.0,60.4,96,83,56,29.98,29.90,3,0,0,0.00
2013-6-19,84.6,72.6,60.5,70.6,64.5,58.8,96,78,54,30.00,29.91,5,0,0,0.00
2013-6-20,87.7,76.1,63.5,74.2,68.2,61.4,94,78,59,30.01,29.92,6,1,0,0.00
2013-6-21,89.7,80.7,72.2,75.0,71.5,68.9,90,75,54,30.00,29.92,11,1,0,0.00
2013-6-22,87.1,79.4,72.5,74.5,70.6,68.5,89,76,57,29.99,29.86,8,1,0,0.00
2013-6-23,88.4,79.0,68.8,73.8,70.1,66.6,94,75,54,29.94,29.84,11,1,0,0.00
2013-6-24,87.7,79.6,71.2,73.7,70.1,67.1,87,73,56,29.98,29.86,10,1,0,0.00
2013-6-25,86.9,80.2,75.3,72.2,69.8,67.4,84,71,54,29.90,29.76,11,2,0,0.00
2013-6-26,91.8,81.1,73.4,78.3,72.5,69.6,92,76,59,29.86,29.75,13,1,0,0.00
2013-6-27,95.8,85.9,70.6,78.9,74.3,68.5,95,70,50,29.90,29.78,7,0,0,0.00
2013-6-28,89.4,80.6,67.9,75.7,69.4,60.4,90,70,45,29.86,29.74,9,1,0,0.00
2013-6-29,85.2,72.3,59.5,64.6,58.3,54.7,92,65,38,29.83,29.74,13,2,0,0.00
2013-6-30,77.6,67.2,58.6,63.4,59.3,55.1,92,77,56,29.92,29.78,11,1,0,0.00